createdAt,value
2018-12-14T00:01:01.792Z,107.80
2018-12-14T00:03:52.601Z,108.70
2018-12-14T00:06:43.276Z,108.97
2018-12-14T00:09:33.428Z,113.75
2018-12-14T00:12:21.812Z,113.77
2018-12-14T00:15:12.332Z,112.17
2018-12-14T00:17:59.963Z,113.65
2018-12-14T00:20:48.030Z,117.45
2018-12-14T00:23:36.001Z,113.70
2018-12-14T00:26:23.857Z,113.28
2018-12-14T00:29:12.232Z,111.37
2018-12-14T00:32:00.866Z,114.05
2018-12-14T00:34:50.408Z,116.08
2018-12-14T00:37:38.185Z,112.60
2018-12-14T00:40:25.511Z,111.85
2018-12-14T00:43:13.738Z,112.55
2018-12-14T00:46:01.961Z,111.70
2018-12-14T00:48:50.364Z,114.10
2018-12-14T00:51:38.660Z,116.05
2018-12-14T00:54:26.115Z,113.65
2018-12-14T00:57:13.945Z,115.17
2018-12-14T01:00:03.263Z,116.05
2018-12-14T01:02:50.971Z,113.08
2018-12-14T01:05:39.120Z,109.30
2018-12-14T01:08:28.918Z,109.12
2018-12-14T01:11:17.505Z,109.90
2018-12-14T01:14:05.525Z,114.15
2018-12-14T01:16:54.532Z,115.30
2018-12-14T01:19:42.524Z,116.67
2018-12-14T01:22:30.652Z,120.87
2018-12-14T01:25:19.236Z,114.40
2018-12-14T01:28:07.447Z,117.22
2018-12-14T01:30:54.979Z,115.22
2018-12-14T01:33:43.282Z,115.80
2018-12-14T01:36:30.855Z,116.25
2018-12-14T01:39:18.953Z,111.28
2018-12-14T01:42:07.861Z,114.35
2018-12-14T01:44:56.653Z,110.35
2018-12-14T01:47:44.575Z,104.43
2018-12-14T01:50:33.222Z,103.35
2018-12-14T01:53:21.273Z,103.27
2018-12-14T01:56:09.398Z,97.12
2018-12-14T01:58:58.194Z,96.17
2018-12-14T02:01:46.878Z,94.52
2018-12-14T02:04:34.921Z,94.13
2018-12-14T02:07:23.451Z,91.72
2018-12-14T02:10:11.720Z,89.50
2018-12-14T02:13:00.015Z,90.28
2018-12-14T02:15:48.822Z,87.92
2018-12-14T02:18:36.558Z,88.30
2018-12-14T02:21:24.745Z,86.02
2018-12-14T02:24:14.306Z,84.90
2018-12-14T02:27:04.751Z,85.35
2018-12-14T02:29:54.588Z,85.42
2018-12-14T02:32:42.600Z,87.97
2018-12-14T02:35:31.675Z,88.92
2018-12-14T02:38:23.914Z,96.90
2018-12-14T02:41:12.765Z,94.75
2018-12-14T02:44:01.373Z,98.07
2018-12-14T02:46:50.596Z,100.25
2018-12-14T02:49:39.862Z,106.97
2018-12-14T02:52:29.958Z,106.97
2018-12-14T02:55:17.695Z,108.78
2018-12-14T02:58:05.338Z,108.25
2018-12-14T03:00:53.666Z,109.25
2018-12-14T03:03:42.192Z,102.62
2018-12-14T03:06:32.569Z,103.62
2018-12-14T03:09:20.667Z,102.15
2018-12-14T03:12:08.309Z,102.12
2018-12-14T03:14:56.946Z,103.70
2018-12-14T03:17:45.469Z,105.58
2018-12-14T03:20:33.666Z,105.75
2018-12-14T03:23:22.375Z,112.60
2018-12-14T03:26:10.070Z,109.00
2018-12-14T03:29:00.645Z,113.85
2018-12-14T03:31:48.442Z,114.40
2018-12-14T03:34:36.469Z,116.20
2018-12-14T03:37:25.775Z,117.57
2018-12-14T03:40:15.026Z,121.20
2018-12-14T03:43:03.122Z,116.90
2018-12-14T03:45:51.504Z,112.92
2018-12-14T03:48:41.338Z,114.97
2018-12-14T03:51:32.021Z,112.83
2018-12-14T03:54:21.124Z,109.03
2018-12-14T03:57:08.748Z,139.12
2018-12-14T03:59:57.293Z,123.35
2018-12-14T04:02:46.801Z,127.30
2018-12-14T04:05:35.375Z,142.68
2018-12-14T04:08:24.102Z,129.85
2018-12-14T04:11:13.006Z,126.42
2018-12-14T04:14:01.640Z,127.47
2018-12-14T04:16:48.876Z,124.92
2018-12-14T04:19:37.017Z,128.80
2018-12-14T04:22:25.038Z,129.23
2018-12-14T04:25:12.578Z,130.03
2018-12-14T04:28:01.246Z,134.05
2018-12-14T04:30:50.053Z,131.10
2018-12-14T04:33:39.517Z,128.50
2018-12-14T04:36:27.467Z,127.35
2018-12-14T04:39:19.715Z,133.03
2018-12-14T04:42:08.392Z,134.05
2018-12-14T04:44:56.570Z,130.82
2018-12-14T04:47:45.428Z,134.37
2018-12-14T04:50:39.002Z,131.87
2018-12-14T04:53:27.574Z,129.18
2018-12-14T04:56:16.773Z,130.95
2018-12-14T04:59:04.964Z,128.23
2018-12-14T05:01:53.033Z,128.18
2018-12-14T05:04:42.136Z,126.05
2018-12-14T05:07:30.319Z,126.20
2018-12-14T05:10:18.419Z,123.67
2018-12-14T05:13:07.306Z,121.15
2018-12-14T05:15:55.860Z,123.25
2018-12-14T05:18:44.703Z,118.37
2018-12-14T05:21:36.173Z,124.85
2018-12-14T05:24:27.689Z,125.75
2018-12-14T05:27:19.119Z,122.82
2018-12-14T05:30:18.144Z,121.80
2018-12-14T05:33:09.350Z,122.70
2018-12-14T05:35:59.443Z,117.45
2018-12-14T05:38:50.828Z,115.47
2018-12-14T05:41:40.418Z,117.50
2018-12-14T05:44:29.392Z,118.85
2018-12-14T05:47:19.234Z,117.55
2018-12-14T05:50:09.320Z,116.65
2018-12-14T05:52:58.915Z,118.10
2018-12-14T05:55:58.573Z,117.57
2018-12-14T05:58:49.389Z,118.82
2018-12-14T06:01:37.887Z,118.20
2018-12-14T06:04:26.330Z,112.47
2018-12-14T06:07:17.515Z,115.72
2018-12-14T06:10:13.269Z,112.62
2018-12-14T06:13:08.908Z,117.15
2018-12-14T06:15:57.564Z,112.40
2018-12-14T06:18:47.382Z,110.97
2018-12-14T06:21:37.439Z,108.67
2018-12-14T06:24:27.651Z,110.08
2018-12-14T06:27:16.451Z,109.63
2018-12-14T06:30:12.080Z,111.72
2018-12-14T06:33:03.978Z,112.92
2018-12-14T06:35:56.842Z,111.83
2018-12-14T06:38:52.562Z,108.30
2018-12-14T06:41:46.894Z,112.22
2018-12-14T06:44:43.417Z,112.65
2018-12-14T06:47:35.810Z,110.80
2018-12-14T06:50:32.910Z,109.55
2018-12-14T06:53:25.638Z,111.15
2018-12-14T06:56:22.344Z,112.08
2018-12-14T06:59:12.249Z,112.25
2018-12-14T07:02:01.483Z,112.25
2018-12-14T07:04:53.763Z,115.88
2018-12-14T07:07:44.205Z,117.95
2018-12-14T07:10:34.908Z,113.75
2018-12-14T07:13:26.048Z,113.28
2018-12-14T07:16:16.430Z,114.52
2018-12-14T07:19:05.448Z,114.72
2018-12-14T07:21:55.647Z,116.35
2018-12-14T07:24:48.532Z,115.12
2018-12-14T07:27:36.941Z,113.95
2018-12-14T07:30:25.670Z,111.68
2018-12-14T07:33:16.161Z,111.85
2018-12-14T07:36:06.823Z,108.67
2018-12-14T07:38:55.909Z,111.15
2018-12-14T07:41:48.968Z,112.15
2018-12-14T07:44:40.821Z,115.05
2018-12-14T07:47:29.871Z,111.90
2018-12-14T07:50:18.451Z,112.32
2018-12-14T07:53:09.228Z,111.37
2018-12-14T07:55:59.314Z,108.83
2018-12-14T07:58:50.164Z,109.17
2018-12-14T08:01:40.883Z,110.68
2018-12-14T08:04:30.275Z,109.65
2018-12-14T08:07:19.519Z,109.90
2018-12-14T08:10:08.563Z,110.25
2018-12-14T08:12:57.268Z,104.32
2018-12-14T08:15:47.308Z,106.97
2018-12-14T08:18:37.149Z,107.65
2018-12-14T08:21:26.237Z,104.85
2018-12-14T08:24:14.667Z,103.02
2018-12-14T08:27:03.731Z,100.12
2018-12-14T08:29:53.025Z,101.97
2018-12-14T08:32:43.352Z,101.65
2018-12-14T08:35:33.468Z,102.65
2018-12-14T08:38:24.960Z,99.30
2018-12-14T08:41:16.164Z,101.27
2018-12-14T08:44:08.854Z,94.15
2018-12-14T08:47:00.661Z,97.88
2018-12-14T08:49:52.023Z,97.27
2018-12-14T08:52:41.937Z,95.17
2018-12-14T08:55:35.735Z,94.55
2018-12-14T08:58:26.987Z,94.03
2018-12-14T09:01:17.573Z,96.87
2018-12-14T09:04:08.458Z,94.80
2018-12-14T09:16:38.954Z,94.45
2018-12-14T09:19:28.763Z,92.92
2018-12-14T09:22:18.711Z,90.53
2018-12-14T09:25:13.480Z,88.87
2018-12-14T09:28:02.768Z,91.82
2018-12-14T09:30:52.881Z,90.67
2018-12-14T09:33:42.382Z,89.37
2018-12-14T09:36:33.252Z,90.30
2018-12-14T09:39:23.676Z,87.27
2018-12-14T09:42:12.188Z,87.57
2018-12-14T09:45:06.262Z,89.60
2018-12-14T09:47:57.672Z,87.57
2018-12-14T09:50:46.282Z,85.87
2018-12-14T09:53:34.712Z,89.00
2018-12-14T09:56:22.425Z,88.37
2018-12-14T09:59:10.748Z,87.57
2018-12-14T10:02:01.366Z,87.80
2018-12-14T10:04:50.801Z,89.75
2018-12-14T10:07:46.581Z,89.62
2018-12-14T10:10:31.728Z,88.27
2018-12-14T10:13:20.323Z,89.10
2018-12-14T10:16:12.424Z,84.87
2018-12-14T10:19:03.746Z,90.42
2018-12-14T10:21:55.040Z,86.78
2018-12-14T10:24:45.687Z,89.90
2018-12-14T10:27:35.733Z,90.38
2018-12-14T10:30:29.873Z,89.35
2018-12-14T10:33:20.926Z,93.95
2018-12-14T10:36:11.319Z,91.50
2018-12-14T10:39:05.845Z,90.32
2018-12-14T10:42:04.859Z,90.85
2018-12-14T10:45:02.802Z,90.70
2018-12-14T10:48:04.439Z,91.32
2018-12-14T10:51:03.409Z,90.62
2018-12-14T10:53:58.074Z,89.42
2018-12-14T11:07:48.344Z,90.60
2018-12-14T11:11:02.828Z,89.55
2018-12-14T11:14:13.745Z,87.30
2018-12-14T11:17:19.340Z,85.07
2018-12-14T11:20:33.910Z,83.42
2018-12-14T11:23:31.059Z,88.40
2018-12-14T11:26:26.678Z,86.20
2018-12-14T11:33:04.213Z,86.00
2018-12-14T11:36:05.716Z,92.72
2018-12-14T11:39:07.188Z,95.65
2018-12-14T11:42:27.357Z,92.27
2018-12-14T11:45:57.798Z,94.65
2018-12-14T11:49:09.760Z,100.78
2018-12-14T11:52:33.959Z,101.90
2018-12-14T11:55:43.483Z,97.78
2018-12-14T11:58:44.284Z,100.45
2018-12-14T12:02:06.960Z,100.75
2018-12-14T12:08:39.998Z,107.87
2018-12-14T12:11:53.067Z,107.80
2018-12-14T12:15:14.657Z,108.40
2018-12-14T12:18:49.278Z,104.35
2018-12-14T12:22:39.445Z,101.47
2018-12-14T12:25:51.051Z,103.67
2018-12-14T12:29:14.273Z,102.07
2018-12-14T12:32:16.672Z,107.43
2018-12-14T12:35:26.690Z,110.35
2018-12-14T12:38:24.101Z,112.20
2018-12-14T12:45:47.970Z,114.77
2018-12-14T12:52:32.616Z,117.67
2018-12-14T12:59:16.996Z,119.65
2018-12-14T13:02:34.202Z,119.50
2018-12-14T13:05:34.840Z,123.95
2018-12-14T13:12:50.964Z,120.67
2018-12-14T13:15:56.853Z,121.53
2018-12-14T13:18:54.096Z,122.10
2018-12-14T13:21:56.387Z,121.25
2018-12-14T13:27:55.750Z,122.45
2018-12-14T13:30:51.349Z,124.12
2018-12-14T13:33:54.971Z,122.67
2018-12-14T13:36:50.935Z,120.85
2018-12-14T13:39:58.014Z,114.97
2018-12-14T13:43:05.824Z,115.92
2018-12-14T13:46:21.865Z,114.52
2018-12-14T13:49:28.779Z,124.20
2018-12-14T13:52:41.399Z,126.27
2018-12-14T13:56:00.237Z,128.20
2018-12-14T13:59:11.659Z,129.47
2018-12-14T14:02:31.295Z,133.43
2018-12-14T14:05:42.816Z,132.97
2018-12-14T14:09:04.829Z,132.25
2018-12-14T14:12:30.654Z,130.65
2018-12-14T14:19:15.660Z,136.92
2018-12-14T14:22:39.079Z,141.68
2018-12-14T14:25:51.369Z,142.10
2018-12-14T14:29:06.694Z,140.60
2018-12-14T14:32:17.558Z,138.88
2018-12-14T14:35:22.146Z,136.88
2018-12-14T14:38:34.653Z,135.40
2018-12-14T14:41:45.710Z,137.00
2018-12-14T14:44:48.120Z,135.15
2018-12-14T14:48:00.993Z,137.57
2018-12-14T14:51:08.178Z,134.35
2018-12-14T14:54:02.028Z,133.90
2018-12-14T14:57:11.241Z,130.52
2018-12-14T15:00:09.916Z,135.75
2018-12-14T15:03:12.575Z,136.03
2018-12-14T15:06:17.865Z,136.28
2018-12-14T15:09:20.011Z,138.92
2018-12-14T15:12:36.654Z,138.70
2018-12-14T15:15:41.160Z,142.95
2018-12-14T15:18:57.174Z,139.00
2018-12-14T15:22:04.672Z,141.37
2018-12-14T15:25:16.035Z,143.80
2018-12-14T15:28:31.696Z,145.15
2018-12-14T15:31:44.349Z,143.00
2018-12-14T15:35:01.857Z,146.62
2018-12-14T15:38:18.554Z,147.43
2018-12-14T15:41:27.701Z,149.65
2018-12-14T15:44:41.783Z,151.35
2018-12-14T15:47:55.441Z,148.13
2018-12-14T15:51:05.500Z,150.12
2018-12-14T15:53:54.779Z,148.17
2018-12-14T15:57:06.354Z,149.97
2018-12-14T16:00:11.193Z,150.20
2018-12-14T16:03:01.411Z,145.17
2018-12-14T16:05:50.770Z,143.87
2018-12-14T16:08:41.396Z,146.95
2018-12-14T16:11:30.740Z,140.18
2018-12-14T16:14:21.201Z,139.75
2018-12-14T16:17:10.913Z,134.32
2018-12-14T16:20:01.248Z,134.80
2018-12-14T16:22:50.051Z,137.22
2018-12-14T16:25:39.009Z,131.60
2018-12-14T16:28:27.924Z,137.35
2018-12-14T16:31:16.837Z,138.47
2018-12-14T16:34:05.847Z,134.32
2018-12-14T16:36:57.495Z,139.47
2018-12-14T16:39:46.408Z,135.60
2018-12-14T16:42:35.612Z,130.07
2018-12-14T16:45:26.656Z,129.35
2018-12-14T16:48:16.226Z,131.55
2018-12-14T16:51:06.499Z,129.35
2018-12-14T16:53:58.903Z,131.22
2018-12-14T16:59:41.814Z,128.68
2018-12-14T17:02:30.572Z,130.82
2018-12-14T17:05:19.554Z,127.17
2018-12-14T17:08:08.146Z,127.10
2018-12-14T17:10:56.462Z,128.42
2018-12-14T17:13:47.191Z,126.07
2018-12-14T17:16:38.834Z,120.47
2018-12-14T17:19:30.786Z,117.37
2018-12-14T17:22:22.837Z,114.00
2018-12-14T17:25:14.888Z,110.63
2018-12-14T17:28:05.892Z,112.03
2018-12-14T17:30:57.000Z,110.32
2018-12-14T17:33:47.093Z,110.68
2018-12-14T17:36:38.891Z,104.78
2018-12-14T17:39:33.014Z,106.52
2018-12-14T17:42:22.938Z,102.20
2018-12-14T17:45:11.564Z,107.35
2018-12-14T17:48:01.817Z,104.95
2018-12-14T17:50:50.778Z,109.32
2018-12-14T17:53:40.255Z,107.75
2018-12-14T17:56:29.179Z,108.87
2018-12-14T17:59:17.757Z,108.15
2018-12-14T18:02:08.109Z,110.28
2018-12-14T18:04:57.088Z,109.92
2018-12-14T18:07:46.824Z,109.15
2018-12-14T18:10:36.667Z,110.60
2018-12-14T18:13:24.728Z,108.72
2018-12-14T18:16:13.171Z,109.20
2018-12-14T18:19:02.489Z,110.70
2018-12-14T18:24:45.179Z,110.28
2018-12-14T18:27:33.977Z,106.97
2018-12-14T18:30:22.449Z,107.10
2018-12-14T18:33:11.574Z,109.25
2018-12-14T18:36:00.539Z,109.78
2018-12-14T18:38:48.036Z,107.43
2018-12-14T18:41:38.805Z,110.65
2018-12-14T18:44:29.094Z,111.97
2018-12-14T18:47:19.592Z,109.90
2018-12-14T18:50:11.025Z,110.28
2018-12-14T18:53:01.648Z,106.85
2018-12-14T18:55:52.428Z,107.67
2018-12-14T18:58:42.084Z,101.20
2018-12-14T19:01:29.874Z,104.12
2018-12-14T19:04:18.447Z,99.95
2018-12-14T19:07:07.976Z,101.25
2018-12-14T19:09:57.391Z,99.58
2018-12-14T19:12:47.037Z,99.55
2018-12-14T19:15:36.300Z,100.20
2018-12-14T19:18:24.702Z,101.33
2018-12-14T19:21:12.983Z,97.42
2018-12-14T19:24:04.088Z,99.17
2018-12-14T19:26:53.248Z,99.52
2018-12-14T19:29:43.426Z,101.18
2018-12-14T19:32:32.011Z,100.65
2018-12-14T19:35:20.495Z,101.47
2018-12-14T19:38:10.185Z,99.95
2018-12-14T19:40:58.746Z,97.72
2018-12-14T19:43:47.478Z,95.07
2018-12-14T19:46:35.305Z,97.62
2018-12-14T19:49:24.882Z,97.08
2018-12-14T19:52:13.933Z,97.47
2018-12-14T19:55:03.867Z,96.53
2018-12-14T19:57:54.419Z,98.87
2018-12-14T20:00:43.795Z,97.82
2018-12-14T20:03:31.984Z,99.77
